createdAt,value
2023-04-05T00:00:55.285Z,-0.34
2023-04-05T00:03:23.205Z,-0.35
2023-04-05T00:05:50.876Z,-0.36
2023-04-05T00:08:23.966Z,-0.39
2023-04-05T00:10:51.835Z,-0.40
2023-04-05T00:13:19.572Z,-0.43
2023-04-05T00:15:47.193Z,-0.44
2023-04-05T00:18:21.810Z,-0.44
2023-04-05T00:20:49.725Z,-0.44
2023-04-05T00:23:18.595Z,-0.48
2023-04-05T00:25:48.060Z,-0.58
2023-04-05T00:28:15.897Z,-0.56
2023-04-05T00:30:43.537Z,-0.59
2023-04-05T00:33:13.719Z,-0.56
2023-04-05T00:35:41.516Z,-0.58
2023-04-05T00:38:09.615Z,-0.76
2023-04-05T00:40:37.727Z,-0.74
2023-04-05T00:43:06.704Z,-0.64
2023-04-05T00:45:34.480Z,-0.62
2023-04-05T00:48:02.469Z,-0.67
2023-04-05T00:50:31.014Z,-0.71
2023-04-05T00:52:59.194Z,-0.62
2023-04-05T00:55:27.791Z,-0.60
2023-04-05T00:57:56.615Z,-0.60
2023-04-05T01:00:26.068Z,-0.62
2023-04-05T01:03:01.924Z,-0.57
2023-04-05T01:05:38.120Z,-0.49
2023-04-05T01:08:13.500Z,-0.46
2023-04-05T01:10:45.705Z,-0.41
2023-04-05T01:17:03.211Z,-0.34
2023-04-05T01:19:31.123Z,-0.44
2023-04-05T01:22:38.123Z,-0.49
2023-04-05T01:25:23.664Z,-0.42
2023-04-05T01:28:14.158Z,-0.42
2023-04-05T01:30:49.260Z,-0.43
2023-04-05T01:33:25.890Z,-0.41
2023-04-05T01:36:00.819Z,-0.39
2023-04-05T01:38:29.580Z,-0.41
2023-04-05T01:40:57.493Z,-0.42
2023-04-05T01:43:25.252Z,-0.43
2023-04-05T01:45:54.148Z,-0.42
2023-04-05T01:48:22.161Z,-0.41
2023-04-05T01:50:49.778Z,-0.37
2023-04-05T01:53:17.497Z,-0.40
2023-04-05T01:55:45.059Z,-0.34
2023-04-05T01:58:12.634Z,-0.33
2023-04-05T02:00:40.456Z,-0.35
2023-04-05T02:03:09.775Z,-0.45
2023-04-05T02:05:37.424Z,-0.42
2023-04-05T02:08:05.481Z,-0.42
2023-04-05T02:10:33.111Z,-0.42
2023-04-05T02:13:00.960Z,-0.41
2023-04-05T02:15:28.582Z,-0.42
2023-04-05T02:18:02.028Z,-0.42
2023-04-05T02:20:31.224Z,-0.42
2023-04-05T02:23:00.630Z,-0.44
2023-04-05T02:25:29.794Z,-0.44
2023-04-05T02:27:58.593Z,-0.46
2023-04-05T02:30:28.889Z,-0.51
2023-04-05T02:32:57.330Z,-0.51
2023-04-05T02:35:25.078Z,-0.62
2023-04-05T02:37:54.260Z,-0.81
2023-04-05T02:40:22.830Z,-0.78
2023-04-05T02:42:50.555Z,-0.79
2023-04-05T02:45:19.591Z,-0.79
2023-04-05T02:47:47.748Z,-0.78
2023-04-05T02:50:20.330Z,-0.82
2023-04-05T02:52:48.221Z,-0.85
2023-04-05T02:55:17.909Z,-0.88
2023-04-05T02:57:46.875Z,-0.90
2023-04-05T03:00:29.082Z,-0.93
2023-04-05T03:02:59.720Z,-0.91
2023-04-05T03:05:27.588Z,-0.94
2023-04-05T03:07:55.230Z,-0.96
2023-04-05T03:10:34.915Z,-0.97
2023-04-05T03:13:10.390Z,-1.02
2023-04-05T03:15:38.831Z,-1.03
2023-04-05T03:18:12.246Z,-1.06
2023-04-05T03:20:41.979Z,-1.07
2023-04-05T03:23:17.539Z,-1.12
2023-04-05T03:25:48.375Z,-1.21
2023-04-05T03:28:18.316Z,-1.24
2023-04-05T03:30:49.169Z,-1.28
2023-04-05T03:33:20.580Z,-1.61
2023-04-05T03:35:51.329Z,-1.63
2023-04-05T03:38:19.785Z,-1.56
2023-04-05T03:40:59.187Z,-1.53
2023-04-05T03:43:27.821Z,-1.55
2023-04-05T03:45:55.955Z,-1.59
2023-04-05T03:48:24.336Z,-1.58
2023-04-05T03:50:51.936Z,-1.60
2023-04-05T03:53:21.530Z,-1.61
2023-04-05T03:55:55.662Z,-1.61
2023-04-05T03:58:40.044Z,-1.58
2023-04-05T04:01:07.949Z,-1.56
2023-04-05T04:03:37.444Z,-1.55
2023-04-05T04:06:06.160Z,-1.57
2023-04-05T04:08:34.398Z,-1.52
2023-04-05T04:11:01.964Z,-1.55
2023-04-05T04:13:33.915Z,-1.58
2023-04-05T04:16:12.519Z,-1.58
2023-04-05T04:18:47.445Z,-1.61
2023-04-05T04:21:33.779Z,-1.62
2023-04-05T04:24:27.187Z,-1.63
2023-04-05T04:27:12.177Z,-1.65
2023-04-05T04:29:46.746Z,-1.64
2023-04-05T04:35:29.578Z,-1.82
2023-04-05T04:38:07.323Z,-1.80
2023-04-05T04:40:47.485Z,-1.80
2023-04-05T04:43:27.710Z,-1.77
2023-04-05T04:46:19.101Z,-1.80
2023-04-05T04:48:58.621Z,-1.82
2023-04-05T04:51:34.179Z,-1.83
2023-04-05T04:54:01.753Z,-1.84
2023-04-05T04:56:29.496Z,-1.81
2023-04-05T04:58:59.257Z,-1.81
2023-04-05T05:01:26.978Z,-1.80
2023-04-05T05:03:54.703Z,-1.83
2023-04-05T05:06:27.219Z,-1.79
2023-04-05T05:08:56.448Z,-1.72
2023-04-05T05:11:25.628Z,-1.68
2023-04-05T05:13:53.517Z,-1.63
2023-04-05T05:16:24.692Z,-1.60
2023-04-05T05:18:52.612Z,-1.59
2023-04-05T05:21:21.445Z,-1.53
2023-04-05T05:23:57.375Z,-1.47
2023-04-05T05:26:25.040Z,-1.55
2023-04-05T05:28:54.168Z,-1.57
2023-04-05T05:31:22.602Z,-1.49
2023-04-05T05:33:50.775Z,-1.36
2023-04-05T05:36:19.847Z,-1.29
2023-04-05T05:38:49.013Z,-1.30
2023-04-05T05:41:18.051Z,-1.22
2023-04-05T05:43:45.926Z,-1.12
2023-04-05T05:46:13.700Z,-0.96
2023-04-05T05:48:41.839Z,-0.86
2023-04-05T05:51:10.428Z,-0.74
2023-04-05T05:53:38.363Z,-0.62
2023-04-05T05:56:07.339Z,-0.50
2023-04-05T05:58:36.745Z,-0.37
2023-04-05T06:01:04.567Z,-0.25
2023-04-05T06:03:32.317Z,-0.15
2023-04-05T06:06:03.070Z,-0.03
2023-04-05T06:08:30.736Z,0.10
2023-04-05T06:10:58.762Z,0.21
2023-04-05T06:13:26.333Z,0.30
2023-04-05T06:15:55.376Z,0.40
2023-04-05T06:18:23.096Z,0.48
2023-04-05T06:20:50.770Z,0.55
2023-04-05T06:23:18.337Z,0.63
2023-04-05T06:25:46.274Z,0.68
2023-04-05T06:28:13.821Z,0.86
2023-04-05T06:30:41.714Z,1.01
2023-04-05T06:33:10.776Z,1.08
2023-04-05T06:35:38.441Z,1.22
2023-04-05T06:38:06.042Z,1.27
2023-04-05T06:40:33.756Z,1.37
2023-04-05T06:43:01.368Z,1.46
2023-04-05T06:45:32.373Z,1.53
2023-04-05T06:48:00.027Z,1.68
2023-04-05T06:50:29.129Z,1.78
2023-04-05T06:52:56.840Z,1.85
2023-04-05T06:55:24.566Z,1.92
2023-04-05T06:57:52.202Z,1.89
2023-04-05T07:00:20.725Z,2.07
2023-04-05T07:02:48.325Z,2.14
2023-04-05T07:05:16.195Z,2.19
2023-04-05T07:07:45.542Z,2.32
2023-04-05T07:10:13.272Z,2.37
2023-04-05T07:12:41.126Z,2.36
2023-04-05T07:15:09.663Z,2.47
2023-04-05T07:17:37.425Z,2.60
2023-04-05T07:20:08.019Z,2.71
2023-04-05T07:22:36.063Z,2.85
2023-04-05T07:25:05.986Z,3.01
2023-04-05T07:27:34.935Z,3.17
2023-04-05T07:30:02.653Z,3.25
2023-04-05T07:32:30.503Z,3.33
2023-04-05T07:34:58.388Z,3.47
2023-04-05T07:37:27.359Z,3.64
2023-04-05T07:39:55.049Z,3.74
2023-04-05T07:42:23.930Z,3.87
2023-04-05T07:44:51.734Z,3.99
2023-04-05T07:47:20.348Z,4.15
2023-04-05T07:49:48.028Z,4.29
2023-04-05T07:52:15.663Z,4.19
2023-04-05T07:54:44.001Z,4.39
2023-04-05T07:57:11.655Z,4.47
2023-04-05T07:59:40.599Z,4.53
2023-04-05T08:02:14.452Z,4.58
2023-04-05T08:04:42.730Z,4.76
2023-04-05T08:07:10.362Z,4.70
2023-04-05T08:09:38.111Z,4.96
2023-04-05T08:12:06.572Z,5.20
2023-04-05T08:14:34.299Z,5.18
2023-04-05T08:17:03.187Z,5.38
2023-04-05T08:19:31.077Z,5.50
2023-04-05T08:21:58.622Z,5.76
2023-04-05T08:24:26.541Z,6.11
2023-04-05T08:26:54.142Z,6.13
2023-04-05T08:29:21.768Z,6.34
2023-04-05T08:31:49.598Z,6.54
2023-04-05T08:34:18.734Z,6.78
2023-04-05T08:36:47.595Z,6.78
2023-04-05T08:39:16.548Z,7.03
2023-04-05T08:41:55.093Z,7.19
2023-04-05T08:44:23.828Z,7.44
2023-04-05T08:46:51.811Z,7.82
2023-04-05T08:49:20.942Z,7.57
2023-04-05T08:51:49.623Z,7.98
2023-04-05T08:54:18.306Z,7.97
2023-04-05T08:56:48.006Z,7.92
2023-04-05T08:59:18.118Z,7.89
2023-04-05T09:01:48.961Z,8.28
2023-04-05T09:04:19.344Z,8.39
2023-04-05T09:06:50.289Z,8.60
2023-04-05T09:09:19.700Z,8.74
2023-04-05T09:11:47.703Z,8.72
2023-04-05T09:14:16.084Z,8.75
2023-04-05T09:16:44.128Z,8.93
2023-04-05T09:19:12.139Z,8.61
2023-04-05T09:22:00.696Z,8.47
2023-04-05T09:24:33.443Z,8.12
2023-04-05T09:27:08.807Z,7.83
2023-04-05T09:29:37.042Z,7.42
2023-04-05T09:32:07.580Z,7.27
2023-04-05T09:34:36.827Z,7.38
2023-04-05T09:37:14.299Z,7.59
2023-04-05T09:39:42.124Z,7.40
2023-04-05T09:42:11.652Z,7.16
2023-04-05T09:44:54.477Z,7.46
2023-04-05T09:47:23.434Z,7.25
2023-04-05T09:49:55.887Z,7.50
2023-04-05T09:52:26.312Z,7.64
2023-04-05T09:54:56.425Z,7.66
2023-04-05T09:57:26.377Z,7.79
2023-04-05T09:59:55.243Z,8.25
2023-04-05T10:02:24.023Z,8.49
2023-04-05T10:04:52.361Z,9.14
2023-04-05T10:07:21.144Z,9.69
2023-04-05T10:09:50.398Z,10.16
2023-04-05T10:12:25.833Z,9.93
2023-04-05T10:14:53.656Z,9.66
2023-04-05T10:17:27.404Z,9.75
2023-04-05T10:20:07.117Z,10.42
2023-04-05T10:22:41.993Z,11.29
2023-04-05T10:25:17.293Z,11.87
2023-04-05T10:27:49.175Z,11.50
2023-04-05T10:30:17.900Z,11.43
2023-04-05T10:32:59.025Z,11.37
2023-04-05T10:35:35.519Z,10.89
2023-04-05T10:38:18.363Z,10.91
2023-04-05T10:40:48.702Z,11.17
2023-04-05T10:43:21.815Z,10.77
2023-04-05T10:45:53.035Z,11.65
2023-04-05T10:48:30.015Z,12.52
2023-04-05T10:50:59.383Z,12.71
2023-04-05T10:53:27.513Z,13.48
2023-04-05T10:55:58.168Z,13.76
2023-04-05T10:58:27.020Z,13.46
2023-04-05T11:00:56.257Z,13.65
2023-04-05T11:03:42.787Z,13.96
2023-04-05T11:06:32.812Z,14.08
2023-04-05T11:09:02.147Z,14.22
2023-04-05T11:11:40.160Z,14.63
2023-04-05T11:14:19.681Z,14.83
2023-04-05T11:16:49.118Z,14.46
2023-04-05T11:19:17.818Z,14.13
2023-04-05T11:21:46.041Z,14.79
2023-04-05T11:24:16.011Z,15.02
2023-04-05T11:26:59.962Z,15.62
2023-04-05T11:29:49.982Z,15.02
2023-04-05T11:32:18.578Z,14.32
2023-04-05T11:34:58.867Z,13.69
2023-04-05T11:38:02.187Z,13.76
2023-04-05T11:40:31.077Z,14.56
2023-04-05T11:43:08.619Z,14.81
2023-04-05T11:45:37.934Z,14.39
2023-04-05T11:48:07.373Z,14.23
2023-04-05T11:50:36.617Z,14.42
2023-04-05T11:53:14.508Z,14.18
2023-04-05T11:55:43.788Z,13.66
2023-04-05T11:58:17.500Z,13.16
2023-04-05T12:00:46.978Z,13.22
2023-04-05T12:03:16.139Z,13.07
2023-04-05T12:05:51.078Z,13.29
2023-04-05T12:08:19.694Z,13.28
2023-04-05T12:10:55.398Z,13.04
2023-04-05T12:13:32.868Z,12.88
2023-04-05T12:16:01.540Z,12.67
2023-04-05T12:18:31.434Z,12.13
2023-04-05T12:20:59.382Z,12.00
2023-04-05T12:23:27.639Z,12.38
2023-04-05T12:25:57.849Z,12.66
2023-04-05T12:28:25.677Z,12.67
2023-04-05T12:30:57.060Z,12.74
2023-04-05T12:33:29.359Z,13.31
2023-04-05T12:35:57.602Z,13.34
2023-04-05T12:38:27.163Z,13.53
2023-04-05T12:40:55.005Z,13.28
2023-04-05T12:43:23.836Z,13.20
2023-04-05T12:45:56.527Z,13.53
2023-04-05T12:48:26.112Z,13.55
2023-04-05T12:50:54.948Z,13.83
2023-04-05T12:53:28.433Z,14.19
2023-04-05T12:55:57.580Z,13.86
2023-04-05T12:58:34.755Z,14.00
2023-04-05T13:01:04.393Z,13.94
2023-04-05T13:03:32.116Z,14.27
2023-04-05T13:05:59.776Z,13.92
2023-04-05T13:08:27.837Z,13.81
2023-04-05T13:10:57.923Z,13.97
2023-04-05T13:13:26.140Z,14.00
2023-04-05T13:15:54.199Z,14.14
2023-04-05T13:18:23.273Z,14.71
2023-04-05T13:20:50.973Z,15.46
2023-04-05T13:23:18.703Z,15.27
2023-04-05T13:25:46.287Z,15.43
2023-04-05T13:28:14.074Z,14.94
2023-04-05T13:30:41.647Z,15.12
2023-04-05T13:33:09.543Z,14.93
2023-04-05T13:35:38.546Z,14.79
2023-04-05T13:38:06.749Z,14.57
2023-04-05T13:40:34.385Z,14.62
2023-04-05T13:43:02.198Z,14.67
2023-04-05T13:45:29.939Z,14.30
2023-04-05T13:47:57.784Z,14.22
2023-04-05T13:50:25.642Z,14.26
2023-04-05T13:52:54.729Z,14.41
2023-04-05T13:55:22.287Z,14.86
2023-04-05T13:57:50.271Z,15.14
2023-04-05T14:00:18.421Z,15.22
2023-04-05T14:02:46.612Z,14.79
2023-04-05T14:05:15.473Z,14.77
2023-04-05T14:07:43.234Z,14.55
2023-04-05T14:10:12.510Z,14.09
2023-04-05T14:12:40.639Z,13.85
2023-04-05T14:15:09.054Z,13.98
2023-04-05T14:17:36.775Z,14.55
2023-04-05T14:20:04.473Z,14.85
2023-04-05T14:22:32.375Z,15.07
2023-04-05T14:24:59.949Z,15.36
2023-04-05T14:27:29.153Z,15.50
2023-04-05T14:29:57.298Z,15.53
2023-04-05T14:32:25.453Z,15.42
2023-04-05T14:34:53.152Z,15.40
2023-04-05T14:37:20.927Z,15.50
2023-04-05T14:39:48.507Z,15.56
2023-04-05T14:42:16.212Z,15.47
2023-04-05T14:44:45.663Z,15.36
2023-04-05T14:47:13.666Z,15.69
2023-04-05T14:49:41.458Z,16.21
2023-04-05T14:52:09.128Z,16.60
2023-04-05T14:54:36.688Z,16.43
2023-04-05T14:57:04.425Z,16.49
2023-04-05T14:59:32.611Z,16.32
2023-04-05T15:02:01.890Z,15.85
2023-04-05T15:04:30.344Z,15.54
2023-04-05T15:06:58.153Z,15.77
2023-04-05T15:09:25.960Z,15.93
2023-04-05T15:11:55.063Z,16.18
2023-04-05T15:14:31.723Z,16.03
2023-04-05T15:17:01.347Z,15.98
2023-04-05T15:19:30.664Z,15.79
2023-04-05T15:21:58.387Z,15.63
2023-04-05T15:24:26.273Z,15.55
2023-04-05T15:26:53.848Z,16.00
2023-04-05T15:29:21.510Z,16.62
2023-04-05T15:31:49.120Z,16.78
2023-04-05T15:34:18.215Z,17.11
2023-04-05T15:36:45.886Z,17.18
2023-04-05T15:39:14.582Z,17.49
2023-04-05T15:41:42.243Z,17.60
2023-04-05T15:44:09.930Z,18.02
2023-04-05T15:46:37.614Z,18.38
2023-04-05T15:49:05.679Z,18.33
2023-04-05T15:51:35.811Z,17.95
2023-04-05T15:54:03.751Z,17.54
2023-04-05T15:56:32.027Z,17.68
2023-04-05T15:59:00.454Z,17.63
2023-04-05T16:01:28.352Z,17.78
2023-04-05T16:03:56.272Z,17.86
2023-04-05T16:06:27.995Z,18.18
2023-04-05T16:08:57.539Z,17.97
2023-04-05T16:11:25.544Z,18.03
2023-04-05T16:13:54.515Z,18.30
2023-04-05T16:16:34.716Z,18.70
2023-04-05T16:19:10.486Z,18.98
2023-04-05T16:21:38.066Z,18.59
2023-04-05T16:24:07.647Z,18.34
2023-04-05T16:26:35.597Z,18.38
2023-04-05T16:29:03.580Z,18.46
2023-04-05T16:31:31.402Z,18.35
2023-04-05T16:33:59.287Z,17.99
2023-04-05T16:36:27.539Z,17.75
2023-04-05T16:38:55.361Z,17.74
2023-04-05T16:41:24.326Z,17.30
2023-04-05T16:43:52.432Z,17.00
2023-04-05T16:46:20.309Z,16.80
2023-04-05T16:48:48.131Z,16.39
2023-04-05T16:51:16.236Z,15.58
2023-04-05T16:53:43.975Z,14.68
2023-04-05T16:56:11.814Z,13.87
2023-04-05T16:58:40.873Z,13.42
2023-04-05T17:01:09.075Z,12.93
2023-04-05T17:03:36.765Z,12.47
2023-04-05T17:06:05.795Z,12.15
2023-04-05T17:08:33.405Z,12.21
2023-04-05T17:11:01.043Z,12.59
2023-04-05T17:13:28.661Z,12.93
2023-04-05T17:15:58.179Z,13.25
2023-04-05T17:18:25.809Z,13.46
2023-04-05T17:20:53.384Z,13.59
2023-04-05T17:23:20.960Z,13.56
2023-04-05T17:25:48.543Z,13.33
2023-04-05T17:28:16.181Z,12.82
2023-04-05T17:30:43.772Z,12.34
2023-04-05T17:33:12.749Z,11.90
2023-04-05T17:35:40.412Z,11.53
2023-04-05T17:38:08.024Z,11.20
2023-04-05T17:40:35.609Z,10.82
2023-04-05T17:43:03.199Z,10.53
2023-04-05T17:45:31.161Z,10.17
2023-04-05T17:47:58.911Z,9.96
2023-04-05T17:50:28.471Z,9.69
2023-04-05T17:52:56.055Z,9.52
2023-04-05T17:55:23.654Z,9.32
2023-04-05T17:57:51.216Z,9.10
2023-04-05T18:00:19.536Z,8.94
2023-04-05T18:02:47.453Z,8.88
2023-04-05T18:05:15.614Z,8.70
2023-04-05T18:07:44.540Z,8.55
2023-04-05T18:10:13.187Z,8.42
2023-04-05T18:12:41.297Z,8.25
2023-04-05T18:15:09.739Z,8.07
2023-04-05T18:17:37.354Z,7.91
2023-04-05T18:20:06.611Z,7.80
2023-04-05T18:22:34.547Z,7.62
2023-04-05T18:25:04.039Z,7.43
2023-04-05T18:27:32.758Z,7.27
2023-04-05T18:30:00.337Z,7.10
2023-04-05T18:32:28.153Z,6.96
2023-04-05T18:34:55.954Z,6.86
2023-04-05T18:37:23.894Z,6.84
2023-04-05T18:39:51.602Z,6.73
2023-04-05T18:42:20.546Z,6.53
2023-04-05T18:44:49.197Z,6.42
2023-04-05T18:47:16.843Z,6.34
2023-04-05T18:49:44.423Z,6.27
2023-04-05T18:52:12.163Z,6.19
2023-04-05T18:54:40.052Z,6.09
2023-04-05T18:57:07.950Z,6.02
2023-04-05T18:59:36.929Z,5.92
2023-04-05T19:02:05.201Z,5.86
2023-04-05T19:04:32.891Z,5.79
2023-04-05T19:07:00.574Z,5.76
2023-04-05T19:09:28.215Z,5.68
2023-04-05T19:11:56.422Z,5.54
2023-04-05T19:14:24.606Z,5.39
2023-04-05T19:16:53.566Z,5.25
2023-04-05T19:19:21.134Z,5.15
2023-04-05T19:21:48.904Z,5.13
2023-04-05T19:24:16.577Z,5.07
2023-04-05T19:26:45.478Z,5.04
2023-04-05T19:29:13.213Z,4.90
2023-04-05T19:31:41.502Z,4.79
2023-04-05T19:34:10.522Z,4.70
2023-04-05T19:36:39.239Z,4.60
2023-04-05T19:39:07.644Z,4.52
2023-04-05T19:41:35.969Z,4.46
2023-04-05T19:44:09.808Z,4.43
2023-04-05T19:46:39.649Z,4.37
2023-04-05T19:49:12.101Z,4.31
2023-04-05T19:51:39.890Z,4.27
2023-04-05T19:54:11.860Z,4.19
2023-04-05T19:56:40.038Z,4.11
2023-04-05T19:59:28.101Z,3.90
2023-04-05T20:01:56.108Z,3.79
2023-04-05T20:04:26.607Z,3.65
2023-04-05T20:06:56.056Z,3.52
2023-04-05T20:09:25.353Z,3.45
2023-04-05T20:11:56.870Z,3.33
2023-04-05T20:14:28.997Z,3.31
2023-04-05T20:16:57.721Z,3.22
2023-04-05T20:19:30.823Z,3.13
2023-04-05T20:21:59.603Z,3.00
2023-04-05T20:24:27.902Z,2.70
2023-04-05T20:26:57.077Z,2.68
2023-04-05T20:29:27.270Z,2.66
2023-04-05T20:31:55.711Z,2.66
2023-04-05T20:34:29.801Z,2.69
2023-04-05T20:37:00.536Z,2.68
2023-04-05T20:39:28.900Z,2.62
2023-04-05T20:41:56.955Z,2.56
2023-04-05T20:44:25.023Z,2.52
2023-04-05T20:46:54.038Z,2.45
2023-04-05T20:49:22.369Z,2.41
2023-04-05T20:51:51.918Z,2.39
2023-04-05T20:54:21.357Z,2.40
2023-04-05T20:56:48.988Z,2.37
2023-04-05T20:59:17.154Z,2.31
2023-04-05T21:01:47.067Z,2.28
2023-04-05T21:04:15.285Z,2.23
2023-04-05T21:06:42.931Z,2.20
2023-04-05T21:09:12.044Z,2.21
2023-04-05T21:11:39.710Z,2.22
2023-04-05T21:14:07.323Z,2.15
2023-04-05T21:16:34.889Z,2.13
2023-04-05T21:19:02.464Z,2.05
2023-04-05T21:21:31.151Z,2.02
2023-04-05T21:23:58.742Z,1.99
2023-04-05T21:26:27.670Z,1.94
2023-04-05T21:28:55.355Z,1.94
2023-04-05T21:31:22.926Z,1.89
2023-04-05T21:33:50.811Z,1.83
2023-04-05T21:36:18.386Z,1.75
2023-04-05T21:38:46.206Z,1.60
2023-04-05T21:41:13.752Z,1.48
2023-04-05T21:43:42.887Z,1.46
2023-04-05T21:46:11.729Z,1.48
2023-04-05T21:48:39.393Z,1.34
2023-04-05T21:51:06.990Z,1.25
2023-04-05T21:53:34.785Z,1.20
2023-04-05T21:56:02.349Z,1.03
2023-04-05T21:58:30.563Z,1.13
2023-04-05T22:01:00.256Z,1.16
2023-04-05T22:03:28.058Z,1.18
2023-04-05T22:05:55.767Z,1.16
2023-04-05T22:08:23.477Z,1.13
2023-04-05T22:10:51.263Z,0.91
2023-04-05T22:13:18.968Z,0.93
2023-04-05T22:15:47.609Z,0.95
2023-04-05T22:18:16.803Z,0.87
2023-04-05T22:20:44.392Z,0.79
2023-04-05T22:23:12.581Z,0.69
2023-04-05T22:25:40.282Z,0.72
2023-04-05T22:28:07.847Z,0.69
2023-04-05T22:30:43.839Z,0.63
2023-04-05T22:33:13.510Z,0.52
2023-04-05T22:35:42.817Z,0.26
2023-04-05T22:38:10.445Z,0.21
2023-04-05T22:40:38.152Z,0.25
2023-04-05T22:43:05.736Z,0.07
2023-04-05T22:45:33.593Z,0.08
2023-04-05T22:48:01.293Z,-0.17
2023-04-05T22:50:29.177Z,0.01
2023-04-05T22:52:58.119Z,0.12
2023-04-05T22:55:25.960Z,0.17
2023-04-05T22:57:53.558Z,-0.01
2023-04-05T23:00:21.516Z,0.04
2023-04-05T23:02:49.198Z,0.11
2023-04-05T23:05:17.017Z,-0.06
2023-04-05T23:07:44.731Z,-0.02
2023-04-05T23:10:13.946Z,0.07
2023-04-05T23:12:41.720Z,0.10
2023-04-05T23:15:10.126Z,0.07
2023-04-05T23:17:37.821Z,0.13
2023-04-05T23:20:06.399Z,0.12
2023-04-05T23:22:34.893Z,0.14
2023-04-05T23:25:03.100Z,0.06
2023-04-05T23:27:32.163Z,0.06
2023-04-05T23:29:59.908Z,0.15
2023-04-05T23:32:27.675Z,0.11
2023-04-05T23:34:55.598Z,0.09
2023-04-05T23:37:23.160Z,0.08
2023-04-05T23:39:50.979Z,0.07
2023-04-05T23:42:18.564Z,0.07
2023-04-05T23:44:48.030Z,-0.06
2023-04-05T23:47:15.596Z,-0.11
2023-04-05T23:49:43.450Z,-0.05
2023-04-05T23:52:11.108Z,-0.05
2023-04-05T23:54:38.898Z,-0.03
2023-04-05T23:57:06.600Z,-0.01
2023-04-05T23:59:34.960Z,-0.03
